sensor_id;sensor_type;location;lat;lon;timestamp;temperature;humidity
63409;DHT22;49544;50.872;4.348;2022-07-06T00:02:10;19.20;76.80
63409;DHT22;49544;50.872;4.348;2022-07-06T00:04:35;19.20;77.10
63409;DHT22;49544;50.872;4.348;2022-07-06T00:07:04;19.10;77.30
63409;DHT22;49544;50.872;4.348;2022-07-06T00:09:29;19.10;77.70
63409;DHT22;49544;50.872;4.348;2022-07-06T00:11:55;19.10;77.80
63409;DHT22;49544;50.872;4.348;2022-07-06T00:14:22;18.90;78.20
63409;DHT22;49544;50.872;4.348;2022-07-06T00:16:48;18.90;78.50
63409;DHT22;49544;50.872;4.348;2022-07-06T00:19:16;18.90;78.60
63409;DHT22;49544;50.872;4.348;2022-07-06T00:21:42;19.00;78.60
63409;DHT22;49544;50.872;4.348;2022-07-06T00:24:12;19.00;78.50
63409;DHT22;49544;50.872;4.348;2022-07-06T00:26:38;19.10;78.60
63409;DHT22;49544;50.872;4.348;2022-07-06T00:29:04;19.00;78.40
63409;DHT22;49544;50.872;4.348;2022-07-06T00:31:29;18.90;78.70
63409;DHT22;49544;50.872;4.348;2022-07-06T00:33:57;19.00;79.00
63409;DHT22;49544;50.872;4.348;2022-07-06T00:36:23;19.10;78.90
63409;DHT22;49544;50.872;4.348;2022-07-06T00:38:48;19.10;78.60
63409;DHT22;49544;50.872;4.348;2022-07-06T00:41:14;19.20;78.30
63409;DHT22;49544;50.872;4.348;2022-07-06T00:43:46;19.30;78.10
63409;DHT22;49544;50.872;4.348;2022-07-06T00:46:12;19.40;77.70
63409;DHT22;49544;50.872;4.348;2022-07-06T00:48:40;19.30;77.50
63409;DHT22;49544;50.872;4.348;2022-07-06T00:51:06;19.20;77.70
63409;DHT22;49544;50.872;4.348;2022-07-06T00:53:34;19.20;77.80
63409;DHT22;49544;50.872;4.348;2022-07-06T00:55:59;19.30;77.90
63409;DHT22;49544;50.872;4.348;2022-07-06T00:58:25;19.30;77.80
63409;DHT22;49544;50.872;4.348;2022-07-06T01:00:51;19.30;77.70
63409;DHT22;49544;50.872;4.348;2022-07-06T01:03:17;19.30;77.80
63409;DHT22;49544;50.872;4.348;2022-07-06T01:05:43;19.30;77.80
63409;DHT22;49544;50.872;4.348;2022-07-06T01:08:09;19.20;77.90
63409;DHT22;49544;50.872;4.348;2022-07-06T01:10:35;19.20;77.90
63409;DHT22;49544;50.872;4.348;2022-07-06T01:13:00;19.20;77.90
63409;DHT22;49544;50.872;4.348;2022-07-06T01:15:26;19.20;78.00
63409;DHT22;49544;50.872;4.348;2022-07-06T01:17:52;19.10;78.10
63409;DHT22;49544;50.872;4.348;2022-07-06T01:20:18;19.10;78.30
63409;DHT22;49544;50.872;4.348;2022-07-06T01:22:45;19.10;78.40
63409;DHT22;49544;50.872;4.348;2022-07-06T01:25:16;19.00;78.40
63409;DHT22;49544;50.872;4.348;2022-07-06T01:27:42;19.00;78.40
63409;DHT22;49544;50.872;4.348;2022-07-06T01:30:08;19.00;78.70
63409;DHT22;49544;50.872;4.348;2022-07-06T01:32:35;19.00;78.70
63409;DHT22;49544;50.872;4.348;2022-07-06T01:35:01;18.90;78.50
63409;DHT22;49544;50.872;4.348;2022-07-06T01:37:26;18.90;78.70
63409;DHT22;49544;50.872;4.348;2022-07-06T01:39:52;18.90;78.70
63409;DHT22;49544;50.872;4.348;2022-07-06T01:42:17;18.90;78.60
63409;DHT22;49544;50.872;4.348;2022-07-06T01:44:43;18.90;78.60
63409;DHT22;49544;50.872;4.348;2022-07-06T01:47:10;18.90;78.60
63409;DHT22;49544;50.872;4.348;2022-07-06T01:49:38;18.90;78.70
63409;DHT22;49544;50.872;4.348;2022-07-06T01:52:04;18.90;78.60
63409;DHT22;49544;50.872;4.348;2022-07-06T01:54:32;18.90;78.60
63409;DHT22;49544;50.872;4.348;2022-07-06T01:57:03;18.90;78.50
63409;DHT22;49544;50.872;4.348;2022-07-06T01:59:32;18.90;78.80
63409;DHT22;49544;50.872;4.348;2022-07-06T02:02:06;19.00;78.60
63409;DHT22;49544;50.872;4.348;2022-07-06T02:04:37;18.80;78.70
63409;DHT22;49544;50.872;4.348;2022-07-06T02:07:10;18.80;78.90
63409;DHT22;49544;50.872;4.348;2022-07-06T02:09:39;18.80;78.80
63409;DHT22;49544;50.872;4.348;2022-07-06T02:12:04;18.90;78.70
63409;DHT22;49544;50.872;4.348;2022-07-06T02:14:36;19.00;78.40
63409;DHT22;49544;50.872;4.348;2022-07-06T02:17:01;19.00;78.10
63409;DHT22;49544;50.872;4.348;2022-07-06T02:19:30;19.00;78.00
63409;DHT22;49544;50.872;4.348;2022-07-06T02:22:04;19.00;78.10
63409;DHT22;49544;50.872;4.348;2022-07-06T02:24:29;19.00;78.30
63409;DHT22;49544;50.872;4.348;2022-07-06T02:26:55;19.00;78.10
63409;DHT22;49544;50.872;4.348;2022-07-06T02:29:23;19.00;78.10
63409;DHT22;49544;50.872;4.348;2022-07-06T02:31:51;19.00;78.20
63409;DHT22;49544;50.872;4.348;2022-07-06T02:34:22;19.00;78.40
63409;DHT22;49544;50.872;4.348;2022-07-06T02:36:48;19.00;78.30
63409;DHT22;49544;50.872;4.348;2022-07-06T02:39:14;19.10;78.20
63409;DHT22;49544;50.872;4.348;2022-07-06T02:41:39;19.10;78.10
63409;DHT22;49544;50.872;4.348;2022-07-06T02:44:05;19.00;78.30
63409;DHT22;49544;50.872;4.348;2022-07-06T02:46:33;18.90;78.50
63409;DHT22;49544;50.872;4.348;2022-07-06T02:49:04;18.80;78.90
63409;DHT22;49544;50.872;4.348;2022-07-06T02:51:31;18.80;79.00
63409;DHT22;49544;50.872;4.348;2022-07-06T02:54:00;18.80;79.20
63409;DHT22;49544;50.872;4.348;2022-07-06T02:56:25;18.80;79.20
63409;DHT22;49544;50.872;4.348;2022-07-06T02:58:51;18.70;79.30
63409;DHT22;49544;50.872;4.348;2022-07-06T03:01:17;18.80;79.50
63409;DHT22;49544;50.872;4.348;2022-07-06T03:03:42;18.80;79.20
63409;DHT22;49544;50.872;4.348;2022-07-06T03:06:11;18.80;79.20
63409;DHT22;49544;50.872;4.348;2022-07-06T03:08:39;18.60;79.70
63409;DHT22;49544;50.872;4.348;2022-07-06T03:11:04;18.60;80.00
63409;DHT22;49544;50.872;4.348;2022-07-06T03:13:30;18.60;80.10
63409;DHT22;49544;50.872;4.348;2022-07-06T03:15:56;18.60;80.10
63409;DHT22;49544;50.872;4.348;2022-07-06T03:18:24;18.50;80.10
63409;DHT22;49544;50.872;4.348;2022-07-06T03:20:50;18.50;80.10
63409;DHT22;49544;50.872;4.348;2022-07-06T03:23:18;18.40;80.30
63409;DHT22;49544;50.872;4.348;2022-07-06T03:25:46;18.40;80.80
63409;DHT22;49544;50.872;4.348;2022-07-06T03:28:11;18.40;80.70
63409;DHT22;49544;50.872;4.348;2022-07-06T03:30:37;18.40;80.50
63409;DHT22;49544;50.872;4.348;2022-07-06T03:33:05;18.50;80.40
63409;DHT22;49544;50.872;4.348;2022-07-06T03:35:30;18.50;80.40
63409;DHT22;49544;50.872;4.348;2022-07-06T03:37:56;18.40;80.50
63409;DHT22;49544;50.872;4.348;2022-07-06T03:40:27;18.40;80.50
63409;DHT22;49544;50.872;4.348;2022-07-06T03:42:52;18.50;80.50
63409;DHT22;49544;50.872;4.348;2022-07-06T03:45:18;18.50;80.20
63409;DHT22;49544;50.872;4.348;2022-07-06T03:47:46;18.50;80.20
63409;DHT22;49544;50.872;4.348;2022-07-06T03:50:20;18.40;80.10
63409;DHT22;49544;50.872;4.348;2022-07-06T03:52:49;18.40;80.30
63409;DHT22;49544;50.872;4.348;2022-07-06T03:55:17;18.50;80.40
63409;DHT22;49544;50.872;4.348;2022-07-06T03:57:43;18.50;80.30
63409;DHT22;49544;50.872;4.348;2022-07-06T04:00:09;18.50;80.80
63409;DHT22;49544;50.872;4.348;2022-07-06T04:02:35;18.50;80.60
63409;DHT22;49544;50.872;4.348;2022-07-06T04:05:04;18.40;81.10
63409;DHT22;49544;50.872;4.348;2022-07-06T04:07:29;18.30;81.40
63409;DHT22;49544;50.872;4.348;2022-07-06T04:09:55;18.30;81.40
63409;DHT22;49544;50.872;4.348;2022-07-06T04:12:21;18.40;81.00
63409;DHT22;49544;50.872;4.348;2022-07-06T04:14:46;18.40;80.80
63409;DHT22;49544;50.872;4.348;2022-07-06T04:17:12;18.20;81.20
63409;DHT22;49544;50.872;4.348;2022-07-06T04:19:56;18.20;81.60
63409;DHT22;49544;50.872;4.348;2022-07-06T04:22:22;18.00;81.80
63409;DHT22;49544;50.872;4.348;2022-07-06T04:24:47;17.90;82.20
63409;DHT22;49544;50.872;4.348;2022-07-06T04:27:13;18.00;82.30
63409;DHT22;49544;50.872;4.348;2022-07-06T04:29:38;17.90;82.40
63409;DHT22;49544;50.872;4.348;2022-07-06T04:32:04;17.90;82.70
63409;DHT22;49544;50.872;4.348;2022-07-06T04:34:30;17.90;82.30
63409;DHT22;49544;50.872;4.348;2022-07-06T04:36:55;17.90;82.50
63409;DHT22;49544;50.872;4.348;2022-07-06T04:39:21;17.80;82.60
63409;DHT22;49544;50.872;4.348;2022-07-06T04:41:46;17.90;82.60
63409;DHT22;49544;50.872;4.348;2022-07-06T04:44:12;17.80;82.90
63409;DHT22;49544;50.872;4.348;2022-07-06T04:46:37;17.70;83.20
63409;DHT22;49544;50.872;4.348;2022-07-06T04:49:03;17.60;83.50
63409;DHT22;49544;50.872;4.348;2022-07-06T04:51:31;17.60;84.00
63409;DHT22;49544;50.872;4.348;2022-07-06T04:53:56;17.50;84.00
63409;DHT22;49544;50.872;4.348;2022-07-06T04:56:27;17.50;84.50
63409;DHT22;49544;50.872;4.348;2022-07-06T04:58:56;17.40;84.90
63409;DHT22;49544;50.872;4.348;2022-07-06T05:01:22;17.30;85.40
63409;DHT22;49544;50.872;4.348;2022-07-06T05:03:50;17.40;85.30
63409;DHT22;49544;50.872;4.348;2022-07-06T05:06:16;17.40;85.20
63409;DHT22;49544;50.872;4.348;2022-07-06T05:08:45;17.50;85.20
63409;DHT22;49544;50.872;4.348;2022-07-06T05:11:10;17.60;85.00
63409;DHT22;49544;50.872;4.348;2022-07-06T05:13:36;17.70;84.60
63409;DHT22;49544;50.872;4.348;2022-07-06T05:16:06;17.80;84.30
63409;DHT22;49544;50.872;4.348;2022-07-06T05:18:32;17.90;83.70
63409;DHT22;49544;50.872;4.348;2022-07-06T05:21:00;18.10;83.60
63409;DHT22;49544;50.872;4.348;2022-07-06T05:23:25;18.10;83.20
63409;DHT22;49544;50.872;4.348;2022-07-06T05:25:52;18.20;83.20
63409;DHT22;49544;50.872;4.348;2022-07-06T05:28:20;18.20;82.90
63409;DHT22;49544;50.872;4.348;2022-07-06T05:30:45;18.10;83.30
63409;DHT22;49544;50.872;4.348;2022-07-06T05:33:11;18.00;83.50
63409;DHT22;49544;50.872;4.348;2022-07-06T05:35:37;18.10;83.30
63409;DHT22;49544;50.872;4.348;2022-07-06T05:38:02;18.30;83.00
63409;DHT22;49544;50.872;4.348;2022-07-06T05:40:30;18.30;82.80
63409;DHT22;49544;50.872;4.348;2022-07-06T05:42:56;18.30;82.70
63409;DHT22;49544;50.872;4.348;2022-07-06T05:45:24;18.40;82.70
63409;DHT22;49544;50.872;4.348;2022-07-06T05:47:49;18.40;82.80
63409;DHT22;49544;50.872;4.348;2022-07-06T05:50:34;18.50;82.60
63409;DHT22;49544;50.872;4.348;2022-07-06T05:53:00;18.60;82.40
63409;DHT22;49544;50.872;4.348;2022-07-06T05:55:26;18.70;82.10
63409;DHT22;49544;50.872;4.348;2022-07-06T05:57:55;18.70;81.80
63409;DHT22;49544;50.872;4.348;2022-07-06T06:00:21;18.80;81.90
63409;DHT22;49544;50.872;4.348;2022-07-06T06:02:49;18.90;81.60
63409;DHT22;49544;50.872;4.348;2022-07-06T06:05:18;19.00;80.60
63409;DHT22;49544;50.872;4.348;2022-07-06T06:07:46;19.00;80.40
63409;DHT22;49544;50.872;4.348;2022-07-06T06:10:16;19.00;81.90
63409;DHT22;49544;50.872;4.348;2022-07-06T06:12:47;19.00;81.30
63409;DHT22;49544;50.872;4.348;2022-07-06T06:15:12;19.10;80.70
63409;DHT22;49544;50.872;4.348;2022-07-06T06:17:38;19.10;81.30
63409;DHT22;49544;50.872;4.348;2022-07-06T06:20:07;19.20;80.60
63409;DHT22;49544;50.872;4.348;2022-07-06T06:22:45;19.20;80.70
63409;DHT22;49544;50.872;4.348;2022-07-06T06:25:12;19.20;81.10
63409;DHT22;49544;50.872;4.348;2022-07-06T06:27:38;19.20;81.20
63409;DHT22;49544;50.872;4.348;2022-07-06T06:30:04;19.30;80.90
63409;DHT22;49544;50.872;4.348;2022-07-06T06:32:30;19.30;80.60
63409;DHT22;49544;50.872;4.348;2022-07-06T06:34:55;19.40;80.30
63409;DHT22;49544;50.872;4.348;2022-07-06T06:37:23;19.50;80.10
63409;DHT22;49544;50.872;4.348;2022-07-06T06:39:51;19.60;79.90
63409;DHT22;49544;50.872;4.348;2022-07-06T06:42:17;19.60;80.00
63409;DHT22;49544;50.872;4.348;2022-07-06T06:44:42;19.70;79.40
63409;DHT22;49544;50.872;4.348;2022-07-06T06:47:11;19.80;79.30
63409;DHT22;49544;50.872;4.348;2022-07-06T06:49:39;19.80;78.10
63409;DHT22;49544;50.872;4.348;2022-07-06T06:52:05;19.80;78.30
63409;DHT22;49544;50.872;4.348;2022-07-06T06:54:33;19.70;77.80
63409;DHT22;49544;50.872;4.348;2022-07-06T06:57:05;19.90;76.50
63409;DHT22;49544;50.872;4.348;2022-07-06T06:59:30;19.90;76.80
63409;DHT22;49544;50.872;4.348;2022-07-06T07:01:56;20.00;76.20
63409;DHT22;49544;50.872;4.348;2022-07-06T07:04:21;20.10;75.90
63409;DHT22;49544;50.872;4.348;2022-07-06T07:06:49;20.10;75.60
63409;DHT22;49544;50.872;4.348;2022-07-06T07:09:18;20.10;73.80
63409;DHT22;49544;50.872;4.348;2022-07-06T07:11:48;20.10;72.70
63409;DHT22;49544;50.872;4.348;2022-07-06T07:14:14;20.20;70.60
63409;DHT22;49544;50.872;4.348;2022-07-06T07:16:39;20.10;70.60
63409;DHT22;49544;50.872;4.348;2022-07-06T07:19:05;20.20;70.20
63409;DHT22;49544;50.872;4.348;2022-07-06T07:21:30;20.10;67.30
63409;DHT22;49544;50.872;4.348;2022-07-06T07:23:56;19.90;68.30
63409;DHT22;49544;50.872;4.348;2022-07-06T07:26:26;20.00;68.10
63409;DHT22;49544;50.872;4.348;2022-07-06T07:28:54;20.00;67.80
63409;DHT22;49544;50.872;4.348;2022-07-06T07:31:20;20.00;68.10
63409;DHT22;49544;50.872;4.348;2022-07-06T07:33:48;19.90;68.10
63409;DHT22;49544;50.872;4.348;2022-07-06T07:36:15;19.80;67.90
63409;DHT22;49544;50.872;4.348;2022-07-06T07:38:41;19.60;69.50
63409;DHT22;49544;50.872;4.348;2022-07-06T07:41:10;19.50;69.40
63409;DHT22;49544;50.872;4.348;2022-07-06T07:43:36;19.60;68.90
63409;DHT22;49544;50.872;4.348;2022-07-06T07:46:02;19.80;69.80
63409;DHT22;49544;50.872;4.348;2022-07-06T07:48:27;19.90;69.30
63409;DHT22;49544;50.872;4.348;2022-07-06T07:50:58;20.10;69.90
63409;DHT22;49544;50.872;4.348;2022-07-06T07:53:24;20.20;70.60
63409;DHT22;49544;50.872;4.348;2022-07-06T07:55:49;20.20;68.50
63409;DHT22;49544;50.872;4.348;2022-07-06T07:58:17;20.30;69.60
63409;DHT22;49544;50.872;4.348;2022-07-06T08:00:43;20.30;68.80
63409;DHT22;49544;50.872;4.348;2022-07-06T08:03:09;20.30;68.20
63409;DHT22;49544;50.872;4.348;2022-07-06T08:05:34;20.30;69.20
63409;DHT22;49544;50.872;4.348;2022-07-06T08:08:03;20.40;68.50
63409;DHT22;49544;50.872;4.348;2022-07-06T08:10:31;20.50;67.50
63409;DHT22;49544;50.872;4.348;2022-07-06T08:12:57;20.50;66.90
63409;DHT22;49544;50.872;4.348;2022-07-06T08:15:25;20.60;66.80
63409;DHT22;49544;50.872;4.348;2022-07-06T08:17:50;20.40;68.20
63409;DHT22;49544;50.872;4.348;2022-07-06T08:20:19;20.30;68.30
63409;DHT22;49544;50.872;4.348;2022-07-06T08:22:53;20.30;68.70
63409;DHT22;49544;50.872;4.348;2022-07-06T08:25:21;20.50;69.10
63409;DHT22;49544;50.872;4.348;2022-07-06T08:27:50;20.60;67.90
63409;DHT22;49544;50.872;4.348;2022-07-06T08:30:15;20.70;68.40
63409;DHT22;49544;50.872;4.348;2022-07-06T08:32:44;20.80;68.60
63409;DHT22;49544;50.872;4.348;2022-07-06T08:35:12;20.70;68.80
63409;DHT22;49544;50.872;4.348;2022-07-06T08:37:38;20.80;68.80
63409;DHT22;49544;50.872;4.348;2022-07-06T08:40:04;20.70;69.10
63409;DHT22;49544;50.872;4.348;2022-07-06T08:42:30;20.60;69.70
63409;DHT22;49544;50.872;4.348;2022-07-06T08:44:59;20.30;70.40
63409;DHT22;49544;50.872;4.348;2022-07-06T08:47:28;20.30;70.70
63409;DHT22;49544;50.872;4.348;2022-07-06T08:49:54;20.50;70.60
63409;DHT22;49544;50.872;4.348;2022-07-06T08:52:23;20.50;71.00
63409;DHT22;49544;50.872;4.348;2022-07-06T08:54:48;20.50;71.00
63409;DHT22;49544;50.872;4.348;2022-07-06T08:57:17;20.50;71.00
63409;DHT22;49544;50.872;4.348;2022-07-06T08:59:42;20.40;70.90
63409;DHT22;49544;50.872;4.348;2022-07-06T09:02:11;20.50;71.10
63409;DHT22;49544;50.872;4.348;2022-07-06T09:04:38;20.60;70.90
63409;DHT22;49544;50.872;4.348;2022-07-06T09:07:10;20.80;70.40
63409;DHT22;49544;50.872;4.348;2022-07-06T09:09:38;21.00;69.60
63409;DHT22;49544;50.872;4.348;2022-07-06T09:12:08;21.10;70.70
63409;DHT22;49544;50.872;4.348;2022-07-06T09:14:37;21.10;69.30
63409;DHT22;49544;50.872;4.348;2022-07-06T09:17:08;21.30;68.80
63409;DHT22;49544;50.872;4.348;2022-07-06T09:19:37;21.50;68.00
63409;DHT22;49544;50.872;4.348;2022-07-06T09:22:03;21.50;68.00
63409;DHT22;49544;50.872;4.348;2022-07-06T09:24:28;21.50;68.10
63409;DHT22;49544;50.872;4.348;2022-07-06T09:26:57;21.40;68.30
63409;DHT22;49544;50.872;4.348;2022-07-06T09:29:35;21.20;68.70
63409;DHT22;49544;50.872;4.348;2022-07-06T09:32:03;21.20;68.50
63409;DHT22;49544;50.872;4.348;2022-07-06T09:34:41;21.20;68.40
63409;DHT22;49544;50.872;4.348;2022-07-06T09:37:10;21.20;69.70
63409;DHT22;49544;50.872;4.348;2022-07-06T09:39:36;21.20;69.00
63409;DHT22;49544;50.872;4.348;2022-07-06T09:42:05;21.20;68.40
63409;DHT22;49544;50.872;4.348;2022-07-06T09:44:37;21.20;68.30
63409;DHT22;49544;50.872;4.348;2022-07-06T09:47:09;21.20;69.40
63409;DHT22;49544;50.872;4.348;2022-07-06T09:49:35;21.30;69.40
63409;DHT22;49544;50.872;4.348;2022-07-06T09:52:03;21.50;68.80
63409;DHT22;49544;50.872;4.348;2022-07-06T09:54:32;21.50;67.90
63409;DHT22;49544;50.872;4.348;2022-07-06T09:56:58;21.70;67.60
63409;DHT22;49544;50.872;4.348;2022-07-06T09:59:27;21.80;68.30
63409;DHT22;49544;50.872;4.348;2022-07-06T10:01:54;21.80;68.00
63409;DHT22;49544;50.872;4.348;2022-07-06T10:04:20;21.80;66.70
63409;DHT22;49544;50.872;4.348;2022-07-06T10:06:46;21.80;66.70
63409;DHT22;49544;50.872;4.348;2022-07-06T10:09:14;21.70;65.40
63409;DHT22;49544;50.872;4.348;2022-07-06T10:11:41;21.70;65.10
63409;DHT22;49544;50.872;4.348;2022-07-06T10:14:10;21.70;65.30
63409;DHT22;49544;50.872;4.348;2022-07-06T10:16:39;21.70;65.20
63409;DHT22;49544;50.872;4.348;2022-07-06T10:19:08;21.70;65.80
63409;DHT22;49544;50.872;4.348;2022-07-06T10:21:39;21.80;66.40
63409;DHT22;49544;50.872;4.348;2022-07-06T10:24:05;21.80;66.30
63409;DHT22;49544;50.872;4.348;2022-07-06T10:26:32;21.80;64.90
63409;DHT22;49544;50.872;4.348;2022-07-06T10:29:01;21.60;65.40
63409;DHT22;49544;50.872;4.348;2022-07-06T10:31:27;21.60;65.60
63409;DHT22;49544;50.872;4.348;2022-07-06T10:34:00;21.80;65.60
63409;DHT22;49544;50.872;4.348;2022-07-06T10:36:29;21.90;65.70
63409;DHT22;49544;50.872;4.348;2022-07-06T10:38:54;21.80;65.80
63409;DHT22;49544;50.872;4.348;2022-07-06T10:41:32;21.70;66.40
63409;DHT22;49544;50.872;4.348;2022-07-06T10:46:55;21.60;67.50
63409;DHT22;49544;50.872;4.348;2022-07-06T10:49:24;21.80;67.20
63409;DHT22;49544;50.872;4.348;2022-07-06T10:51:52;22.00;66.60
63409;DHT22;49544;50.872;4.348;2022-07-06T10:54:18;22.00;66.70
63409;DHT22;49544;50.872;4.348;2022-07-06T10:56:50;21.90;67.30
63409;DHT22;49544;50.872;4.348;2022-07-06T10:59:17;21.80;67.90
63409;DHT22;49544;50.872;4.348;2022-07-06T11:04:30;22.10;67.30
63409;DHT22;49544;50.872;4.348;2022-07-06T11:06:56;22.00;67.80
63409;DHT22;49544;50.872;4.348;2022-07-06T11:09:32;22.20;67.10
63409;DHT22;49544;50.872;4.348;2022-07-06T11:12:07;22.30;68.30
63409;DHT22;49544;50.872;4.348;2022-07-06T11:14:36;22.40;68.60
63409;DHT22;49544;50.872;4.348;2022-07-06T11:17:03;22.60;66.40
63409;DHT22;49544;50.872;4.348;2022-07-06T11:19:29;22.70;65.00
63409;DHT22;49544;50.872;4.348;2022-07-06T11:21:59;22.70;65.40
63409;DHT22;49544;50.872;4.348;2022-07-06T11:24:30;22.70;65.20
63409;DHT22;49544;50.872;4.348;2022-07-06T11:26:56;22.80;65.00
63409;DHT22;49544;50.872;4.348;2022-07-06T11:29:23;22.80;64.60
63409;DHT22;49544;50.872;4.348;2022-07-06T11:31:50;22.50;64.70
63409;DHT22;49544;50.872;4.348;2022-07-06T11:34:20;22.30;65.40
63409;DHT22;49544;50.872;4.348;2022-07-06T11:36:49;22.40;65.10
63409;DHT22;49544;50.872;4.348;2022-07-06T11:39:18;22.50;66.30
63409;DHT22;49544;50.872;4.348;2022-07-06T11:41:44;22.60;66.30
63409;DHT22;49544;50.872;4.348;2022-07-06T11:44:09;22.70;65.50
63409;DHT22;49544;50.872;4.348;2022-07-06T11:46:37;22.90;64.10
63409;DHT22;49544;50.872;4.348;2022-07-06T11:49:08;22.80;62.90
63409;DHT22;49544;50.872;4.348;2022-07-06T11:51:35;22.90;65.10
63409;DHT22;49544;50.872;4.348;2022-07-06T11:54:02;23.00;62.30
63409;DHT22;49544;50.872;4.348;2022-07-06T11:56:32;23.00;62.20
63409;DHT22;49544;50.872;4.348;2022-07-06T11:58:59;23.00;61.60
63409;DHT22;49544;50.872;4.348;2022-07-06T12:01:25;22.90;61.50
63409;DHT22;49544;50.872;4.348;2022-07-06T12:03:52;22.90;61.80
63409;DHT22;49544;50.872;4.348;2022-07-06T12:06:21;22.90;62.20
63409;DHT22;49544;50.872;4.348;2022-07-06T12:08:48;22.80;61.40
63409;DHT22;49544;50.872;4.348;2022-07-06T12:11:23;22.80;63.00
63409;DHT22;49544;50.872;4.348;2022-07-06T12:13:53;22.90;62.50
63409;DHT22;49544;50.872;4.348;2022-07-06T12:16:27;23.10;62.00
63409;DHT22;49544;50.872;4.348;2022-07-06T12:18:56;23.20;62.00
63409;DHT22;49544;50.872;4.348;2022-07-06T12:21:24;23.30;61.80
63409;DHT22;49544;50.872;4.348;2022-07-06T12:23:50;23.20;61.90
63409;DHT22;49544;50.872;4.348;2022-07-06T12:26:19;23.00;62.20
63409;DHT22;49544;50.872;4.348;2022-07-06T12:28:46;23.00;62.80
63409;DHT22;49544;50.872;4.348;2022-07-06T12:31:30;23.10;63.30
63409;DHT22;49544;50.872;4.348;2022-07-06T12:33:56;23.30;62.20
63409;DHT22;49544;50.872;4.348;2022-07-06T12:36:25;23.20;63.30
63409;DHT22;49544;50.872;4.348;2022-07-06T12:38:50;23.20;62.20
63409;DHT22;49544;50.872;4.348;2022-07-06T12:41:29;23.30;62.70
63409;DHT22;49544;50.872;4.348;2022-07-06T12:44:01;23.50;61.50
63409;DHT22;49544;50.872;4.348;2022-07-06T12:46:39;23.50;61.30
63409;DHT22;49544;50.872;4.348;2022-07-06T12:49:12;23.50;62.30
63409;DHT22;49544;50.872;4.348;2022-07-06T12:52:39;23.50;64.40
63409;DHT22;49544;50.872;4.348;2022-07-06T12:54:42;23.60;62.30
63409;DHT22;49544;50.872;4.348;2022-07-06T12:59:41;23.90;61.70
63409;DHT22;49544;50.872;4.348;2022-07-06T13:02:07;23.90;61.10
63409;DHT22;49544;50.872;4.348;2022-07-06T13:04:36;24.10;60.50
63409;DHT22;49544;50.872;4.348;2022-07-06T13:07:02;24.10;60.50
63409;DHT22;49544;50.872;4.348;2022-07-06T13:09:30;24.30;58.70
63409;DHT22;49544;50.872;4.348;2022-07-06T13:11:56;24.30;59.00
63409;DHT22;49544;50.872;4.348;2022-07-06T13:14:21;24.10;58.90
63409;DHT22;49544;50.872;4.348;2022-07-06T13:16:50;24.10;60.00
63409;DHT22;49544;50.872;4.348;2022-07-06T13:19:19;23.80;60.80
63409;DHT22;49544;50.872;4.348;2022-07-06T13:21:44;23.60;61.30
63409;DHT22;49544;50.872;4.348;2022-07-06T13:24:12;23.60;61.60
63409;DHT22;49544;50.872;4.348;2022-07-06T13:26:38;23.80;61.80
63409;DHT22;49544;50.872;4.348;2022-07-06T13:29:06;23.90;61.60
63409;DHT22;49544;50.872;4.348;2022-07-06T13:31:36;24.00;60.60
63409;DHT22;49544;50.872;4.348;2022-07-06T13:34:04;24.00;61.40
63409;DHT22;49544;50.872;4.348;2022-07-06T13:36:29;24.10;61.30
63409;DHT22;49544;50.872;4.348;2022-07-06T13:38:57;24.20;60.20
63409;DHT22;49544;50.872;4.348;2022-07-06T13:41:27;24.10;60.20
63409;DHT22;49544;50.872;4.348;2022-07-06T13:43:58;24.00;61.30
63409;DHT22;49544;50.872;4.348;2022-07-06T13:46:26;24.00;61.60
63409;DHT22;49544;50.872;4.348;2022-07-06T13:48:55;24.20;60.50
63409;DHT22;49544;50.872;4.348;2022-07-06T13:51:22;24.40;61.40
63409;DHT22;49544;50.872;4.348;2022-07-06T13:53:47;24.50;61.00
63409;DHT22;49544;50.872;4.348;2022-07-06T13:56:13;24.60;58.90
63409;DHT22;49544;50.872;4.348;2022-07-06T13:58:38;24.70;60.00
63409;DHT22;49544;50.872;4.348;2022-07-06T14:01:04;24.70;58.70
63409;DHT22;49544;50.872;4.348;2022-07-06T14:03:30;24.60;60.10
63409;DHT22;49544;50.872;4.348;2022-07-06T14:06:00;24.60;59.40
63409;DHT22;49544;50.872;4.348;2022-07-06T14:08:28;24.60;58.90
63409;DHT22;49544;50.872;4.348;2022-07-06T14:10:54;24.40;60.20
63409;DHT22;49544;50.872;4.348;2022-07-06T14:13:25;24.40;60.60
63409;DHT22;49544;50.872;4.348;2022-07-06T14:15:53;24.40;60.10
63409;DHT22;49544;50.872;4.348;2022-07-06T14:18:21;24.60;59.60
63409;DHT22;49544;50.872;4.348;2022-07-06T14:20:47;24.70;60.00
63409;DHT22;49544;50.872;4.348;2022-07-06T14:23:13;24.70;60.00
63409;DHT22;49544;50.872;4.348;2022-07-06T14:25:42;24.70;58.70
63409;DHT22;49544;50.872;4.348;2022-07-06T14:28:08;24.70;59.10
63409;DHT22;49544;50.872;4.348;2022-07-06T14:30:34;24.70;59.00
63409;DHT22;49544;50.872;4.348;2022-07-06T14:33:03;24.70;60.40
63409;DHT22;49544;50.872;4.348;2022-07-06T14:35:35;24.70;59.40
63409;DHT22;49544;50.872;4.348;2022-07-06T14:38:02;24.70;60.10
63409;DHT22;49544;50.872;4.348;2022-07-06T14:40:27;24.80;59.40
63409;DHT22;49544;50.872;4.348;2022-07-06T14:42:53;24.80;59.60
63409;DHT22;49544;50.872;4.348;2022-07-06T14:45:19;24.80;59.60
63409;DHT22;49544;50.872;4.348;2022-07-06T14:47:44;24.60;59.80
63409;DHT22;49544;50.872;4.348;2022-07-06T14:50:13;24.50;59.90
63409;DHT22;49544;50.872;4.348;2022-07-06T14:52:38;24.50;59.90
63409;DHT22;49544;50.872;4.348;2022-07-06T14:55:04;24.50;61.10
63409;DHT22;49544;50.872;4.348;2022-07-06T14:57:30;24.60;61.00
63409;DHT22;49544;50.872;4.348;2022-07-06T14:59:55;24.70;61.00
63409;DHT22;49544;50.872;4.348;2022-07-06T15:02:21;24.80;61.00
63409;DHT22;49544;50.872;4.348;2022-07-06T15:04:52;24.90;59.20
63409;DHT22;49544;50.872;4.348;2022-07-06T15:07:17;24.70;59.60
63409;DHT22;49544;50.872;4.348;2022-07-06T15:09:43;24.60;59.70
63409;DHT22;49544;50.872;4.348;2022-07-06T15:12:14;24.50;59.70
63409;DHT22;49544;50.872;4.348;2022-07-06T15:14:42;24.40;59.70
63409;DHT22;49544;50.872;4.348;2022-07-06T15:17:08;24.50;60.70
63409;DHT22;49544;50.872;4.348;2022-07-06T15:19:33;24.60;59.70
63409;DHT22;49544;50.872;4.348;2022-07-06T15:22:03;24.60;59.60
63409;DHT22;49544;50.872;4.348;2022-07-06T15:24:30;24.70;59.70
63409;DHT22;49544;50.872;4.348;2022-07-06T15:26:56;24.60;59.60
63409;DHT22;49544;50.872;4.348;2022-07-06T15:29:27;24.50;60.00
63409;DHT22;49544;50.872;4.348;2022-07-06T15:31:53;24.30;60.30
63409;DHT22;49544;50.872;4.348;2022-07-06T15:34:21;24.30;60.60
63409;DHT22;49544;50.872;4.348;2022-07-06T15:36:46;24.40;60.20
63409;DHT22;49544;50.872;4.348;2022-07-06T15:39:14;24.40;60.80
63409;DHT22;49544;50.872;4.348;2022-07-06T15:41:43;24.50;60.00